Relevés horaires Basel / Binningen (Suisse)


Relevés horaires à Basel / Binningen - Dimanche 29 Mai 2011
Heure UTC1 Température [°C] Vent [km/h] Hum. [%] Pres.4 [hPa] Visi. [Km] Nébu. [octa] Préc.5 [mm] Cond.
2m. Res. Ros. Dir.2 Vit. Moy. Raf.3
23:00 14.4 14.4 8.6 ESE 3.7 5.6 7.4 68 1016.8(0.2/3h) -- -- -- --
22:00 17.4 17.4 8.6 SE 5.6 5.6 7.4 56 1016.6(0.6/3h) -- -- -- --
21:00 18.1 18.1 8.9 ESE 1.9 9.3 11.1 55 1016.3(0.5/3h) -- -- -- --
20:00 19.4 19.4 8.3 S 3.7 3.7 5.6 49 1015.9(0.5/3h) -- -- -- --
19:00 21.5 21.5 8.9 O 1.9 5.6 11.1 44 1015.5(0.1/3h) -- -- -- --
18:00 23.8 23.8 7.7 NO 5.6 7.4 18.5 36 1015(-0.4/3h) 65 3/8 -- --
17:00 24.7 24.7 6.5 NO 5.6 5.6 14.8 31 1014.7(-0.9/3h) -- -- -- --
16:00 24.6 24.6 6.4 NO 7.4 7.4 18.5 31 1014.9(-1.3/3h) -- -- -- --
15:00 25.6 25.6 6.6 NO 7.4 7.4 18.5 30 1015.2(-1.5/3h) -- -- -- --
14:00 24.5 24.5 5.7 NO 7.4 7.4 16.7 30 1015.7(-1.5/3h) -- -- -- --
13:00 24.9 24.9 7.2 ONO 5.6 7.4 18.5 32 1016.3(-1.2/3h) -- -- -- --
11:00 22.6 22.6 7.7 N 5.6 5.6 14.8 38 1017.5(-1.0/3h) -- -- -- --
10:00 21.6 21.6 7.8 NO 3.7 7.4 27.8 41 1017.9(-0.7/3h) -- -- -- --
09:00 19.0 19.0 5.6 O 1.9 5.6 13.0 41 1018.6(-0.2/3h) -- -- -- --
08:00 17.2 17.2 6.0 E 3.7 5.6 13.0 48 1019.2(0.5/3h) -- -- -- --
07:00 15.0 15.0 7.3 E 5.6 5.6 11.1 60 1019.6(1.0/3h) -- -- -- --
05:00 10.5 10.5 6.0 E 3.7 3.7 9.3 74 1019.7(1.0/3h) -- -- -- --
04:00 9.6 9.6 5.7 ESE 3.7 3.7 7.4 77 1019.3(0.7/3h) -- -- -- --
03:00 10.0 10.0 6.0 E 1.9 7.4 14.8 76 1019(0.2/3h) -- -- -- --
02:00 10.1 10.1 6.0 ESE 3.7 3.7 5.6 76 1018.7(0.1/3h) -- -- -- --
01:00 9.8 9.8 5.4 SSE 1.9 7.4 14.8 74 1018.5(0.1/3h) -- -- -- --

1 Coordinated Universal Time. Actuellement il est 23:00 locale et 21:00 UTC.

2 Le vent souffle depuis la direction indiquée vers la direction oposée.

3 Les rafales max. sont disponible 40 min après l'heure du relevé.

4 Pour les stations d'altitude (plus de 600m) le géopotentiel du niveau le plus proche de la pression obligatoire est indiqué.

5 Les stations disposant d'un diffuseur peuvent indiquer "trace". Cela signifie que des précipitations ont touchés le sol mais que la quantité est inférieure à 0.1 mm.

Copyright

Les données affichées sur cette page sont la propriété exclusive de Météo Suisse.

Récapitulatif de la journée
Température [°C] Vent [km/h] Ensoleillement4 [h] Precipitations totale5 [mm] Pression [Hpa]
Min1 Max.2 Moy.3 Max. Min Max.
-- 26.0 6.1 27.8 0 h 0 min 0 1014.7 1019.7

1 Température minimale relevée entre 18:00 UTC la veille et 18:00 UTC le jour donné.

2 Température maximale relevée entre 06:00 UTC le jour donné et 06:00 UTC le lendemain.

3 Vent moyen de la journée basé sur les relevés horaires.

4 Ensoleillement en heures relevé entre 06:00 UTC la veille et 06:00 UTC le jour donné.

5 Précipitations totales tombées entre 06:00 UTC la jour donné et 06:00 UTC le lendemain.

Graphiques horaires